Time;durP1;ratioP1;P1;durP2;ratioP2;P2;SDS_P1;SDS_P2;PMS_P1;PMS_P2;Temp;Humidity;BMP_temperature;BMP_pressure;BME280_temperature;BME280_humidity;BME280_pressure;Samples;Min_cycle;Max_cycle;Signal;HPM_P1;HPM_P2
2023/12/11 00:01:34;;;;;;;75.70;41.50;;;;;;;2.19;86.40;99902.38;105021;1257;60534;-66
2023/12/11 00:04:01;;;;;;;84.30;42.50;;;;;;;2.20;86.54;99894.63;105112;1260;137815;-59
2023/12/11 00:06:28;;;;;;;70.30;40.60;;;;;;;2.20;86.57;99888.22;104841;1261;75474;-59
2023/12/11 00:08:55;;;;;;;77.80;42.30;;;;;;;2.19;86.29;99890.63;104783;1263;138832;-64
2023/12/11 00:11:22;;;;;;;73.00;39.40;;;;;;;2.20;86.51;99887.54;105055;1260;73618;-59
2023/12/11 00:13:49;;;;;;;77.50;41.60;;;;;;;2.18;86.50;99879.85;104834;1256;60544;-58
2023/12/11 00:16:16;;;;;;;78.60;40.90;;;;;;;2.19;86.61;99882.66;108907;1256;138175;-59
2023/12/11 00:18:43;;;;;;;72.10;41.00;;;;;;;2.19;86.51;99874.88;107898;1255;74824;-64
2023/12/11 00:21:10;;;;;;;75.40;41.20;;;;;;;2.18;86.47;99867.19;104816;1259;138231;-65
2023/12/11 00:23:36;;;;;;;70.90;39.20;;;;;;;2.18;86.60;99867.02;104943;1256;72351;-65
2023/12/11 00:26:03;;;;;;;71.90;40.50;;;;;;;2.18;86.49;99860.25;104745;1258;60435;-65
2023/12/11 00:28:30;;;;;;;78.60;40.90;;;;;;;2.19;86.57;99857.89;105231;1260;138022;-65
2023/12/11 00:30:57;;;;;;;74.30;40.50;;;;;;;2.21;86.75;99857.09;105119;1259;75148;-65
2023/12/11 00:33:24;;;;;;;72.10;40.30;;;;;;;2.19;86.75;99856.67;104806;1258;137884;-66
2023/12/11 00:35:53;;;;;;;69.00;39.50;;;;;;;2.20;86.85;99855.32;104817;1257;73305;-66
2023/12/11 00:38:19;;;;;;;67.30;38.10;;;;;;;2.22;86.81;99850.23;104964;1258;60541;-66
2023/12/11 00:40:46;;;;;;;65.70;37.50;;;;;;;2.22;86.82;99845.73;104702;1260;138155;-65
2023/12/11 00:43:13;;;;;;;66.30;37.80;;;;;;;2.23;86.90;99840.41;104811;1263;72585;-66
2023/12/11 00:45:39;;;;;;;69.80;38.70;;;;;;;2.21;86.71;99839.61;104943;1269;137932;-66
2023/12/11 00:48:06;;;;;;;67.20;37.90;;;;;;;2.19;86.97;99836.62;104884;1260;73641;-67
2023/12/11 00:50:33;;;;;;;62.90;35.90;;;;;;;2.20;87.01;99833.73;104889;1257;138176;-67
2023/12/11 00:53:00;;;;;;;70.90;38.60;;;;;;;2.22;86.98;99828.08;104975;1256;60554;-60
2023/12/11 00:55:29;;;;;;;62.80;34.90;;;;;;;2.23;87.05;99823.78;104938;1260;73931;-66
2023/12/11 00:57:56;;;;;;;66.70;36.60;;;;;;;2.23;87.07;99820.34;104733;1262;137986;-65
2023/12/11 01:00:23;;;;;;;63.50;35.70;;;;;;;2.21;86.84;99821.13;105057;1261;72510;-66
2023/12/11 01:02:49;;;;;;;64.40;36.30;;;;;;;2.21;86.84;99821.65;104755;1256;138125;-66
2023/12/11 01:05:16;;;;;;;65.20;37.00;;;;;;;2.24;87.06;99824.02;105051;1258;60624;-65
2023/12/11 01:07:43;;;;;;;64.20;34.70;;;;;;;2.25;87.19;99821.32;105018;1258;72956;-65
2023/12/11 01:10:10;;;;;;;68.80;38.10;;;;;;;2.26;87.08;99818.57;104728;1260;138044;-65
2023/12/11 01:12:36;;;;;;;62.50;36.50;;;;;;;2.27;87.08;99815.52;104869;1258;74329;-57
2023/12/11 01:15:03;;;;;;;74.00;39.40;;;;;;;2.30;87.09;99814.77;104764;1261;138423;-59
2023/12/11 01:17:30;;;;;;;64.00;36.60;;;;;;;2.34;87.18;99815.44;108892;1257;60515;-59
2023/12/11 01:19:57;;;;;;;63.60;35.60;;;;;;;2.36;87.41;99817.23;108962;1257;74269;-59
2023/12/11 01:22:23;;;;;;;64.90;34.40;;;;;;;2.34;86.95;99813.02;106300;1260;138019;-65
2023/12/11 01:24:50;;;;;;;70.90;38.00;;;;;;;2.35;87.03;99807.34;104898;1266;73128;-66
2023/12/11 01:27:16;;;;;;;67.80;36.10;;;;;;;2.38;87.01;99804.17;104785;1261;138057;-65
2023/12/11 01:29:43;;;;;;;70.60;38.50;;;;;;;2.41;86.96;99801.20;104722;1260;60592;-66
2023/12/11 01:32:10;;;;;;;63.30;35.70;;;;;;;2.41;86.89;99797.05;104797;1260;73212;-67
2023/12/11 01:34:37;;;;;;;61.70;36.00;;;;;;;2.42;86.79;99793.98;104635;1258;138028;-66
2023/12/11 01:37:03;;;;;;;64.40;36.30;;;;;;;2.43;87.14;99788.13;104906;1260;74189;-60
2023/12/11 01:39:30;;;;;;;63.00;35.80;;;;;;;2.44;86.97;99781.05;104785;1260;137782;-60
2023/12/11 01:41:57;;;;;;;64.50;36.50;;;;;;;2.44;87.04;99775.90;104744;1257;61334;-59
2023/12/11 01:44:24;;;;;;;62.50;35.30;;;;;;;2.45;87.02;99772.26;108953;1257;73694;-59
2023/12/11 01:46:53;;;;;;;63.90;35.70;;;;;;;2.47;87.12;99770.64;105852;1257;66414;-59
2023/12/11 01:49:19;;;;;;;60.40;33.50;;;;;;;2.49;86.96;99769.15;104829;1267;73638;-59
2023/12/11 01:51:47;;;;;;;63.00;35.70;;;;;;;2.50;86.97;99763.98;104649;1261;138553;-58
2023/12/11 01:54:14;;;;;;;62.00;34.80;;;;;;;2.49;86.91;99758.92;104522;1270;60442;-58
2023/12/11 01:56:41;;;;;;;60.10;34.60;;;;;;;2.47;86.80;99755.23;104559;1257;138051;-58
2023/12/11 01:59:08;;;;;;;60.90;35.80;;;;;;;2.47;87.04;99748.83;104958;1257;64655;-59
2023/12/11 02:01:35;;;;;;;60.80;34.20;;;;;;;2.48;86.78;99747.11;104760;1264;74673;-60
2023/12/11 02:04:01;;;;;;;60.90;35.30;;;;;;;2.46;86.71;99745.84;104680;1258;138394;-59
2023/12/11 02:06:28;;;;;;;62.10;35.50;;;;;;;2.45;86.79;99741.81;104738;1261;61621;-59
2023/12/11 02:08:54;;;;;;;62.20;35.10;;;;;;;2.45;86.98;99743.02;104445;1262;138640;-60
2023/12/11 02:11:21;;;;;;;61.30;35.20;;;;;;;2.45;86.98;99736.79;104750;1258;67206;-59
2023/12/11 02:13:48;;;;;;;56.60;33.60;;;;;;;2.46;86.96;99736.85;104736;1260;72296;-59
2023/12/11 02:16:15;;;;;;;61.70;34.60;;;;;;;2.47;86.91;99730.97;104713;1256;138572;-59
2023/12/11 02:18:43;;;;;;;62.30;35.60;;;;;;;2.44;86.89;99730.70;104943;1258;60775;-59
2023/12/11 02:21:13;;;;;;;59.60;34.30;;;;;;;2.45;86.88;99727.27;104883;1258;138141;-58
2023/12/11 02:23:46;;;;;;;60.50;33.70;;;;;;;2.47;87.02;99726.83;104937;1258;65351;-58
2023/12/11 02:26:14;;;;;;;60.50;34.00;;;;;;;2.48;87.05;99723.25;104746;1260;73553;-60
2023/12/11 02:28:41;;;;;;;59.80;34.30;;;;;;;2.52;87.24;99720.81;106094;1257;138111;-61
2023/12/11 02:31:07;;;;;;;55.70;32.90;;;;;;;2.54;87.06;99719.13;104624;1261;60714;-60
2023/12/11 02:33:34;;;;;;;63.30;34.20;;;;;;;2.56;87.25;99720.23;104528;1257;138488;-60
2023/12/11 02:36:01;;;;;;;57.90;34.10;;;;;;;2.59;87.31;99713.80;104595;1262;65817;-59
2023/12/11 02:38:28;;;;;;;60.00;34.80;;;;;;;2.59;87.12;99712.07;104557;1257;138520;-59
2023/12/11 02:40:54;;;;;;;53.60;31.80;;;;;;;2.57;86.96;99710.40;104852;1260;60554;-66
2023/12/11 02:43:21;;;;;;;54.20;33.10;;;;;;;2.58;87.11;99709.94;104813;1256;60617;-66
2023/12/11 02:45:48;;;;;;;58.60;34.40;;;;;;;2.59;87.12;99708.06;104768;1257;137823;-66
2023/12/11 02:48:14;;;;;;;56.20;33.60;;;;;;;2.60;87.17;99699.45;105001;1257;67354;-65
2023/12/11 02:50:41;;;;;;;58.20;33.10;;;;;;;2.61;87.19;99699.68;104771;1258;139665;-65
2023/12/11 02:53:07;;;;;;;61.40;34.10;;;;;;;2.62;87.10;99695.90;104880;1256;60396;-65
2023/12/11 02:55:34;;;;;;;59.00;32.20;;;;;;;2.62;87.07;99696.77;104764;1260;60368;-66
2023/12/11 02:58:02;;;;;;;59.40;34.00;;;;;;;2.62;87.02;99693.11;104835;1255;138320;-66
2023/12/11 03:00:30;;;;;;;55.60;32.80;;;;;;;2.64;87.19;99685.61;105293;1257;66975;-66
2023/12/11 03:02:57;;;;;;;55.10;32.20;;;;;;;2.66;86.99;99682.38;105186;1260;139088;-67
2023/12/11 03:05:23;;;;;;;56.10;33.60;;;;;;;2.67;87.00;99673.40;105040;1257;60428;-68
2023/12/11 03:07:50;;;;;;;54.40;31.90;;;;;;;2.68;86.98;99673.46;104882;1254;61088;-68
2023/12/11 03:10:17;;;;;;;53.30;32.30;;;;;;;2.71;87.07;99673.91;104663;1260;138520;-68
2023/12/11 03:12:43;;;;;;;50.50;30.90;;;;;;;2.74;87.07;99674.70;104602;1257;64939;-67
2023/12/11 03:15:10;;;;;;;54.70;32.50;;;;;;;2.74;86.94;99671.44;104715;1260;138051;-67
2023/12/11 03:17:37;;;;;;;59.70;32.70;;;;;;;2.75;86.97;99668.34;104629;1257;60451;-67
2023/12/11 03:20:05;;;;;;;51.70;31.10;;;;;;;2.75;86.90;99664.17;104812;1260;60391;-67
2023/12/11 03:22:32;;;;;;;56.70;32.80;;;;;;;2.75;86.81;99663.13;105431;1259;138017;-67
2023/12/11 03:25:00;;;;;;;55.70;32.40;;;;;;;2.76;86.92;99657.13;104797;1257;65465;-58
2023/12/11 03:27:27;;;;;;;54.60;30.50;;;;;;;2.76;86.88;99656.80;104706;1256;138207;-59
2023/12/11 03:29:53;;;;;;;55.90;32.40;;;;;;;2.77;86.91;99655.95;104730;1257;60470;-59
2023/12/11 03:32:20;;;;;;;54.10;32.30;;;;;;;2.77;86.84;99658.03;104943;1257;61382;-58
2023/12/11 03:34:47;;;;;;;55.00;33.60;;;;;;;2.79;86.92;99655.34;104576;1258;137791;-59
2023/12/11 03:37:14;;;;;;;53.30;32.50;;;;;;;2.81;86.83;99653.32;104851;1260;65203;-66
2023/12/11 03:39:43;;;;;;;53.50;31.80;;;;;;;2.84;86.89;99653.95;104800;1256;138250;-58
2023/12/11 03:42:10;;;;;;;58.00;32.50;;;;;;;2.84;86.93;99647.19;104823;1256;60455;-58
2023/12/11 03:44:36;;;;;;;55.10;32.80;;;;;;;2.88;87.08;99649.44;104938;1257;138530;-61
2023/12/11 03:47:03;;;;;;;51.00;32.60;;;;;;;2.90;86.99;99646.59;104868;1258;74070;-58
2023/12/11 03:49:30;;;;;;;53.70;31.40;;;;;;;2.93;86.96;99647.73;104854;1260;66485;-58
2023/12/11 03:51:57;;;;;;;54.50;33.50;;;;;;;2.93;86.78;99644.09;104737;1260;138711;-58
2023/12/11 03:54:23;;;;;;;53.50;32.60;;;;;;;2.94;86.79;99642.20;104802;1260;60880;-58
2023/12/11 03:56:50;;;;;;;52.80;30.70;;;;;;;2.91;86.70;99639.02;104676;1260;138976;-59
2023/12/11 03:59:17;;;;;;;51.90;31.00;;;;;;;2.89;86.58;99639.25;104821;1260;74224;-59
2023/12/11 04:01:44;;;;;;;48.70;30.30;;;;;;;2.88;86.66;99636.64;104791;1257;65809;-60
2023/12/11 04:04:14;;;;;;;51.30;30.60;;;;;;;2.88;86.58;99631.58;104668;1256;138318;-60
2023/12/11 04:06:41;;;;;;;49.10;29.80;;;;;;;2.86;86.58;99632.23;104773;1261;60523;-58
2023/12/11 04:09:07;;;;;;;52.60;31.00;;;;;;;2.85;86.63;99632.70;104967;1257;137778;-59
2023/12/11 04:11:35;;;;;;;51.30;29.50;;;;;;;2.84;86.66;99627.27;105047;1259;73451;-58
2023/12/11 04:14:02;;;;;;;49.40;28.80;;;;;;;2.82;86.66;99622.89;108079;1256;64995;-65
2023/12/11 04:16:29;;;;;;;49.30;29.60;;;;;;;2.81;86.64;99622.16;104884;1260;138007;-59
2023/12/11 04:18:55;;;;;;;45.70;27.50;;;;;;;2.81;86.60;99623.70;104839;1256;60947;-59
2023/12/11 04:21:22;;;;;;;46.60;28.20;;;;;;;2.80;86.66;99618.66;104841;1260;137796;-58
2023/12/11 04:23:49;;;;;;;43.10;27.80;;;;;;;2.79;86.66;99620.34;104891;1261;72944;-58
2023/12/11 04:26:15;;;;;;;49.80;31.20;;;;;;;2.78;86.63;99614.75;104925;1260;67532;-59
2023/12/11 04:28:42;;;;;;;45.40;29.70;;;;;;;2.79;86.71;99609.40;104852;1260;138239;-66
2023/12/11 04:31:09;;;;;;;39.70;27.50;;;;;;;2.82;86.86;99608.48;104772;1256;60554;-59
2023/12/11 04:33:37;;;;;;;43.00;28.20;;;;;;;2.82;86.77;99610.41;104804;1261;138794;-59
2023/12/11 04:36:09;;;;;;;40.80;26.40;;;;;;;2.84;86.83;99607.87;104879;1257;74927;-60
2023/12/11 04:38:35;;;;;;;46.40;31.80;;;;;;;2.86;86.81;99602.41;108923;1255;138299;-60
2023/12/11 04:41:02;;;;;;;42.40;29.10;;;;;;;2.85;86.85;99602.40;109056;1256;71687;-60
2023/12/11 04:43:29;;;;;;;39.50;25.70;;;;;;;2.86;86.85;99602.23;108998;1256;58499;-59
2023/12/11 04:45:55;;;;;;;39.90;25.30;;;;;;;2.88;86.90;99598.83;108817;1257;137973;-58
2023/12/11 04:48:23;;;;;;;40.80;27.40;;;;;;;2.90;86.79;99596.00;106044;1259;72651;-67
2023/12/11 04:50:49;;;;;;;36.10;25.00;;;;;;;2.93;86.92;99594.87;104735;1256;138775;-59
2023/12/11 04:53:16;;;;;;;35.90;25.20;;;;;;;2.95;86.81;99589.55;104706;1256;73922;-58
2023/12/11 04:55:42;;;;;;;38.20;25.10;;;;;;;2.97;86.85;99589.27;104665;1258;60651;-65
2023/12/11 04:58:09;;;;;;;38.00;24.20;;;;;;;2.96;86.81;99584.23;104910;1256;138079;-59
2023/12/11 05:00:36;;;;;;;35.40;23.50;;;;;;;2.96;86.86;99582.34;104827;1256;74532;-57
2023/12/11 05:03:03;;;;;;;31.80;23.80;;;;;;;2.98;86.93;99579.79;104736;1258;138348;-59
2023/12/11 05:05:29;;;;;;;33.50;23.30;;;;;;;3.00;87.04;99574.14;104914;1256;72683;-59
2023/12/11 05:07:56;;;;;;;35.70;23.30;;;;;;;3.00;87.04;99571.04;104831;1257;60320;-60
2023/12/11 05:10:23;;;;;;;33.80;21.80;;;;;;;3.04;86.98;99574.63;104649;1261;138796;-58
2023/12/11 05:12:49;;;;;;;37.10;23.30;;;;;;;3.05;87.07;99574.52;104950;1256;72433;-59
2023/12/11 05:15:16;;;;;;;30.60;20.70;;;;;;;3.05;86.92;99572.08;104583;1259;137828;-59
2023/12/11 05:17:43;;;;;;;33.60;22.60;;;;;;;3.07;86.97;99571.10;104908;1256;72723;-60
2023/12/11 05:20:12;;;;;;;35.80;21.60;;;;;;;3.09;87.08;99568.93;104997;1257;60434;-59
2023/12/11 05:22:39;;;;;;;33.10;21.90;;;;;;;3.12;87.16;99569.02;105324;1256;139136;-66
2023/12/11 05:25:06;;;;;;;33.50;22.80;;;;;;;3.14;87.14;99569.11;104901;1257;74266;-65
2023/12/11 05:27:33;;;;;;;32.60;21.20;;;;;;;3.15;87.16;99565.49;104716;1260;138203;-67
2023/12/11 05:30:03;;;;;;;33.60;21.10;;;;;;;3.19;87.37;99563.56;104830;1260;71235;-66
2023/12/11 05:32:30;;;;;;;32.30;21.40;;;;;;;3.23;87.31;99563.02;104874;1256;138294;-65
2023/12/11 05:34:56;;;;;;;36.70;24.00;;;;;;;3.25;87.30;99563.27;104857;1257;60783;-58
2023/12/11 05:37:23;;;;;;;39.60;23.30;;;;;;;3.24;86.99;99565.13;104744;1256;74467;-59
2023/12/11 05:39:50;;;;;;;31.00;22.30;;;;;;;3.23;87.09;99559.19;104588;1261;138205;-58
2023/12/11 05:42:16;;;;;;;28.10;19.90;;;;;;;3.24;87.23;99557.32;104661;1256;70799;-59
2023/12/11 05:44:43;;;;;;;29.70;19.10;;;;;;;3.26;87.23;99562.42;104673;1260;138280;-67
2023/12/11 05:47:12;;;;;;;25.20;18.20;;;;;;;3.27;87.50;99557.63;104797;1260;60449;-58
2023/12/11 05:49:39;;;;;;;26.20;17.80;;;;;;;3.31;87.50;99557.77;104688;1260;73010;-59
2023/12/11 05:52:05;;;;;;;25.50;16.40;;;;;;;3.34;87.52;99560.27;104729;1258;138540;-59
2023/12/11 05:54:32;;;;;;;22.00;15.20;;;;;;;3.36;87.60;99558.42;104708;1260;73716;-66
2023/12/11 05:56:59;;;;;;;22.50;15.90;;;;;;;3.37;87.53;99557.42;104729;1256;138539;-63
2023/12/11 05:59:25;;;;;;;20.40;15.50;;;;;;;3.38;87.68;99556.59;104802;1259;60394;-65
2023/12/11 06:01:52;;;;;;;21.80;14.70;;;;;;;3.41;87.79;99556.17;104868;1256;73666;-64
2023/12/11 06:04:19;;;;;;;21.90;15.60;;;;;;;3.45;87.83;99557.17;104672;1256;138647;-64
2023/12/11 06:06:46;;;;;;;24.30;15.50;;;;;;;3.48;87.82;99554.85;104807;1256;73366;-63
2023/12/11 06:09:13;;;;;;;20.40;15.50;;;;;;;3.51;87.79;99550.80;104796;1260;138259;-63
2023/12/11 06:11:40;;;;;;;24.00;15.70;;;;;;;3.53;87.79;99548.61;104921;1257;60488;-59
2023/12/11 06:14:07;;;;;;;27.00;16.30;;;;;;;3.56;87.82;99543.48;104785;1260;75481;-59
2023/12/11 06:16:34;;;;;;;27.70;17.20;;;;;;;3.57;87.87;99542.69;104709;1260;138424;-59
2023/12/11 06:19:00;;;;;;;24.60;17.70;;;;;;;3.59;87.94;99539.96;104802;1256;73516;-59
2023/12/11 06:21:27;;;;;;;32.70;19.40;;;;;;;3.62;87.97;99540.42;104690;1259;139316;-59
2023/12/11 06:23:55;;;;;;;33.00;19.20;;;;;;;3.62;87.79;99541.13;108764;1255;62981;-60
2023/12/11 06:26:30;;;;;;;27.80;17.80;;;;;;;3.65;88.02;99540.86;108906;1255;73030;-60
2023/12/11 06:29:00;;;;;;;30.40;18.80;;;;;;;3.72;88.11;99534.83;108856;1256;65156;-59
2023/12/11 06:31:27;;;;;;;29.80;18.40;;;;;;;3.76;87.99;99533.58;108870;1256;73612;-60
2023/12/11 06:33:54;;;;;;;26.60;17.10;;;;;;;3.79;87.81;99536.47;108779;1255;138592;-60
2023/12/11 06:36:25;;;;;;;33.80;18.40;;;;;;;3.86;87.92;99536.01;109137;1255;60043;-59
2023/12/11 06:38:52;;;;;;;28.20;18.00;;;;;;;3.89;87.83;99530.71;108858;1255;138804;-63
2023/12/11 06:41:19;;;;;;;29.40;17.50;;;;;;;3.91;87.60;99531.12;109118;1255;65596;-59
2023/12/11 06:43:47;;;;;;;28.20;19.70;;;;;;;3.91;87.48;99525.91;109058;1256;71857;-59
2023/12/11 06:46:14;;;;;;;32.30;22.00;;;;;;;3.90;87.30;99521.71;108968;1255;138221;-59
2023/12/11 06:48:41;;;;;;;43.20;28.00;;;;;;;3.91;87.31;99518.95;109007;1255;61341;-59
2023/12/11 06:51:08;;;;;;;36.50;25.30;;;;;;;3.90;87.13;99519.13;109007;1255;138362;-59
2023/12/11 06:53:34;;;;;;;35.60;22.20;;;;;;;3.87;87.05;99519.55;109029;1255;65120;-59
2023/12/11 06:56:01;;;;;;;35.60;21.30;;;;;;;3.85;87.01;99515.84;109052;1255;71615;-59
2023/12/11 06:58:28;;;;;;;32.10;19.80;;;;;;;3.85;86.99;99519.30;108875;1255;139013;-59
2023/12/11 07:00:54;;;;;;;35.90;21.60;;;;;;;3.85;87.19;99513.58;109039;1255;61370;-59
2023/12/11 07:03:21;;;;;;;32.90;20.20;;;;;;;3.87;87.21;99517.63;108918;1255;138693;-59
2023/12/11 07:05:48;;;;;;;35.40;21.00;;;;;;;3.89;87.11;99520.12;109111;1256;66773;-59
2023/12/11 07:08:14;;;;;;;37.10;20.60;;;;;;;3.92;87.16;99520.53;107192;1258;77845;-59
2023/12/11 07:10:41;;;;;;;35.40;20.40;;;;;;;3.93;87.12;99518.16;105032;1256;138306;-58
2023/12/11 07:13:08;;;;;;;29.40;19.50;;;;;;;3.91;87.04;99514.80;104998;1258;60438;-65
2023/12/11 07:15:34;;;;;;;31.70;19.20;;;;;;;3.89;87.09;99515.09;104734;1256;138374;-62
2023/12/11 07:18:01;;;;;;;30.30;19.10;;;;;;;3.89;87.16;99515.25;104995;1254;65169;-63
2023/12/11 07:20:28;;;;;;;31.70;21.00;;;;;;;3.87;87.14;99512.77;104992;1257;72886;-63
2023/12/11 07:22:55;;;;;;;29.10;19.60;;;;;;;3.89;87.28;99511.61;105045;1260;60451;-63
2023/12/11 07:25:22;;;;;;;31.90;19.30;;;;;;;3.89;87.22;99508.50;104912;1256;60374;-63
2023/12/11 07:27:49;;;;;;;37.30;21.70;;;;;;;3.89;87.29;99507.63;105021;1256;138129;-63
2023/12/11 07:30:16;;;;;;;32.80;21.40;;;;;;;3.91;87.38;99503.85;104844;1260;67171;-63
2023/12/11 07:32:42;;;;;;;34.10;22.40;;;;;;;3.93;87.43;99508.09;104872;1256;138376;-63
2023/12/11 07:35:11;;;;;;;32.40;21.50;;;;;;;3.95;87.40;99503.48;105008;1256;60562;-60
2023/12/11 07:37:42;;;;;;;33.50;23.30;;;;;;;3.96;87.51;99496.22;108948;1256;59378;-60
2023/12/11 07:40:09;;;;;;;32.80;21.80;;;;;;;3.99;87.53;99490.77;109030;1255;138665;-60
2023/12/11 07:42:36;;;;;;;38.40;23.80;;;;;;;4.03;87.50;99491.39;107702;1256;66396;-59
2023/12/11 07:45:06;;;;;;;39.00;26.00;;;;;;;4.05;87.41;99494.94;104840;1256;138531;-63
2023/12/11 07:47:33;;;;;;;40.30;25.30;;;;;;;4.06;87.17;99490.80;109135;1255;59503;-63
2023/12/11 07:50:00;;;;;;;41.10;27.40;;;;;;;4.07;87.29;99492.05;109116;1255;60385;-63
2023/12/11 07:52:29;;;;;;;43.90;26.60;;;;;;;4.08;87.18;99486.52;108946;1255;137969;-63
2023/12/11 07:54:56;;;;;;;54.60;32.70;;;;;;;4.10;87.14;99483.11;106983;1255;66871;-62
2023/12/11 07:57:25;;;;;;;41.90;26.20;;;;;;;4.15;87.31;99483.06;104964;1258;138184;-63
2023/12/11 07:59:52;;;;;;;38.10;26.10;;;;;;;4.17;87.08;99486.98;109129;1254;59821;-63
2023/12/11 08:02:18;;;;;;;33.10;21.50;;;;;;;4.19;87.14;99486.51;109092;1256;62540;-64
2023/12/11 08:04:45;;;;;;;38.60;25.10;;;;;;;4.21;87.00;99484.31;109011;1256;139306;-63
2023/12/11 08:07:13;;;;;;;53.20;32.10;;;;;;;4.21;86.95;99481.70;109060;1254;66588;-63
2023/12/11 08:09:40;;;;;;;54.20;35.60;;;;;;;4.24;86.88;99481.08;109022;1256;138787;-63
2023/12/11 08:12:07;;;;;;;60.70;39.20;;;;;;;4.25;86.93;99482.19;109109;1255;59736;-63
2023/12/11 08:14:34;;;;;;;60.50;38.70;;;;;;;4.26;86.92;99476.80;105191;1260;138480;-62
2023/12/11 08:17:00;;;;;;;58.10;39.20;;;;;;;4.28;86.74;99477.75;104918;1260;74336;-63
2023/12/11 08:19:30;;;;;;;59.50;41.90;;;;;;;4.30;86.74;99480.59;104910;1259;67488;-63
2023/12/11 08:21:57;;;;;;;72.30;47.10;;;;;;;4.33;86.73;99478.58;108860;1256;138363;-63
2023/12/11 08:24:24;;;;;;;79.30;51.70;;;;;;;4.34;86.69;99478.77;106914;1256;60490;-62
2023/12/11 08:26:50;;;;;;;81.90;55.30;;;;;;;4.34;86.53;99480.35;105013;1258;137544;-63
2023/12/11 08:29:17;;;;;;;78.20;53.40;;;;;;;4.31;86.44;99479.04;105008;1257;71656;-63
2023/12/11 08:31:44;;;;;;;75.10;50.80;;;;;;;4.30;86.48;99480.92;104886;1256;66638;-62
2023/12/11 08:34:11;;;;;;;75.70;48.70;;;;;;;4.30;86.47;99483.00;104724;1256;138014;-63
2023/12/11 08:36:37;;;;;;;86.60;51.90;;;;;;;4.31;86.53;99483.37;104963;1259;61359;-63
2023/12/11 08:39:04;;;;;;;82.00;48.30;;;;;;;4.31;86.45;99479.20;104914;1256;138339;-63
2023/12/11 08:41:31;;;;;;;107.20;53.50;;;;;;;4.29;86.38;99472.05;104962;1256;73175;-63
2023/12/11 08:43:57;;;;;;;122.50;56.00;;;;;;;4.30;86.46;99470.31;104841;1259;66645;-64
2023/12/11 08:46:24;;;;;;;118.80;54.20;;;;;;;4.33;86.45;99469.37;104910;1255;138286;-63
2023/12/11 08:48:51;;;;;;;113.10;52.40;;;;;;;4.33;86.42;99470.41;104952;1260;60486;-63
2023/12/11 08:51:18;;;;;;;111.30;51.00;;;;;;;4.34;86.35;99465.06;104916;1258;138515;-63
2023/12/11 08:53:45;;;;;;;100.70;49.70;;;;;;;4.40;86.53;99467.32;109141;1255;73306;-62
2023/12/11 08:56:13;;;;;;;86.80;46.40;;;;;;;4.43;86.26;99467.41;109109;1255;67505;-63
2023/12/11 08:58:40;;;;;;;80.10;41.80;;;;;;;4.45;86.28;99467.64;108921;1254;138263;-63
2023/12/11 09:01:06;;;;;;;55.00;32.80;;;;;;;4.46;86.31;99464.91;109037;1256;58471;-63
2023/12/11 09:03:33;;;;;;;51.30;33.00;;;;;;;4.49;86.15;99460.64;108903;1254;138220;-63
2023/12/11 09:06:00;;;;;;;52.40;31.00;;;;;;;4.50;86.07;99457.52;109154;1255;72333;-63
2023/12/11 09:08:27;;;;;;;43.50;29.00;;;;;;;4.50;85.91;99455.25;109104;1255;66345;-63
2023/12/11 09:10:53;;;;;;;46.60;27.80;;;;;;;4.48;85.80;99456.80;108987;1255;137969;-63
2023/12/11 09:13:21;;;;;;;41.50;26.40;;;;;;;4.48;85.91;99456.62;109002;1256;58583;-63
2023/12/11 09:15:48;;;;;;;40.00;26.90;;;;;;;4.51;85.85;99454.60;109019;1255;137507;-63
2023/12/11 09:18:15;;;;;;;40.10;26.70;;;;;;;4.53;85.90;99453.62;109137;1255;72979;-62
2023/12/11 09:20:42;;;;;;;41.30;26.70;;;;;;;4.57;85.92;99450.42;105467;1258;138162;-64
2023/12/11 09:23:09;;;;;;;43.20;28.00;;;;;;;4.59;85.93;99446.66;104893;1257;73232;-63
2023/12/11 09:25:36;;;;;;;39.70;26.90;;;;;;;4.62;85.89;99444.65;104909;1255;60400;-63
2023/12/11 09:28:04;;;;;;;42.60;26.40;;;;;;;4.65;85.88;99442.67;104860;1256;138767;-63
2023/12/11 09:30:30;;;;;;;45.50;26.40;;;;;;;4.70;85.97;99443.31;109145;1256;74113;-63
2023/12/11 09:32:57;;;;;;;46.50;30.20;;;;;;;4.73;85.85;99442.89;109029;1255;139029;-63
2023/12/11 09:35:24;;;;;;;41.70;28.80;;;;;;;4.76;85.89;99439.50;109001;1255;71443;-63
2023/12/11 09:37:51;;;;;;;51.00;31.80;;;;;;;4.80;85.80;99438.73;109101;1256;59321;-63
2023/12/11 09:40:18;;;;;;;57.20;33.00;;;;;;;4.84;85.65;99439.67;108954;1256;138716;-63
2023/12/11 09:42:45;;;;;;;45.80;30.60;;;;;;;4.83;85.59;99441.93;109084;1258;72652;-63
2023/12/11 09:45:12;;;;;;;50.50;33.70;;;;;;;4.86;85.64;99436.79;108902;1255;138439;-64
2023/12/11 09:47:45;;;;;;;50.20;33.00;;;;;;;4.89;85.61;99432.54;109128;1256;72813;-60
2023/12/11 09:50:13;;;;;;;53.20;35.00;;;;;;;4.92;85.48;99425.66;109036;1254;58737;-60
2023/12/11 09:52:40;;;;;;;46.30;32.80;;;;;;;4.97;85.55;99421.45;108923;1255;138323;-60
2023/12/11 09:55:08;;;;;;;45.70;32.20;;;;;;;5.00;85.41;99415.79;107060;1258;73993;-59
2023/12/11 09:57:37;;;;;;;50.10;35.30;;;;;;;5.04;85.41;99415.20;108942;1256;137612;-60
2023/12/11 10:00:04;;;;;;;56.80;37.20;;;;;;;5.11;85.40;99411.88;109046;1256;73945;-60
2023/12/11 10:02:31;;;;;;;64.10;39.00;;;;;;;5.16;85.36;99406.98;108956;1256;138411;-61
2023/12/11 10:05:02;;;;;;;58.00;38.50;;;;;;;5.21;85.35;99402.58;109041;1256;60329;-60
2023/12/11 10:07:30;;;;;;;53.60;35.40;;;;;;;5.25;85.24;99399.90;108981;1256;75233;-60
2023/12/11 10:09:57;;;;;;;62.80;38.10;;;;;;;5.28;85.22;99400.83;109027;1255;138181;-60
2023/12/11 10:12:24;;;;;;;62.60;41.10;;;;;;;5.38;85.25;99398.11;109122;1256;72779;-60
2023/12/11 10:15:00;;;;;;;76.10;44.00;;;;;;;5.44;85.12;99398.44;109015;1254;139432;-63
2023/12/11 10:17:27;;;;;;;79.80;48.10;;;;;;;5.53;85.06;99396.20;109089;1254;61465;-60
2023/12/11 10:19:54;;;;;;;79.10;46.10;;;;;;;5.61;85.05;99395.20;106428;1258;73602;-59
2023/12/11 10:22:27;;;;;;;68.60;44.60;;;;;;;5.68;84.85;99396.55;104653;1258;138211;-64
2023/12/11 10:24:54;;;;;;;;;;;;;;;5.75;84.76;99399.50;104895;1256;72620;-63
2023/12/11 10:27:27;;;;;;;73.50;44.60;;;;;;;5.81;84.87;99396.16;104961;1258;124218;-63
2023/12/11 10:30:13;;;;;;;71.50;43.60;;;;;;;5.92;84.79;99392.21;109109;1255;62025;-64
2023/12/11 10:32:39;;;;;;;66.00;40.50;;;;;;;6.04;84.73;99385.37;108993;1255;137910;-63
2023/12/11 10:35:06;;;;;;;59.70;38.40;;;;;;;6.09;84.51;99379.72;109088;1255;66011;-64
2023/12/11 10:37:36;;;;;;;52.10;34.70;;;;;;;6.15;84.43;99380.20;109045;1255;71888;-64
2023/12/11 10:40:03;;;;;;;47.80;34.40;;;;;;;6.21;84.29;99379.80;108867;1257;194780;-63
2023/12/11 10:42:30;;;;;;;51.40;31.90;;;;;;;6.24;84.06;99376.73;109085;1254;59471;-63
2023/12/11 10:44:56;;;;;;;46.30;30.20;;;;;;;6.25;84.05;99374.48;109039;1255;138503;-65
2023/12/11 10:47:23;;;;;;;47.00;30.70;;;;;;;6.25;83.78;99368.38;106485;1256;66731;-60
2023/12/11 10:49:50;;;;;;;44.90;30.90;;;;;;;6.20;83.60;99367.58;105062;1261;70239;-59
2023/12/11 10:52:17;;;;;;;44.30;30.10;;;;;;;6.18;83.54;99367.37;104972;1258;139049;-59
2023/12/11 10:54:45;;;;;;;46.00;30.40;;;;;;;6.16;83.61;99364.38;104765;1254;64012;-59
2023/12/11 10:57:13;;;;;;;46.90;33.10;;;;;;;6.17;83.64;99362.81;105017;1257;138280;-58
2023/12/11 10:59:41;;;;;;;48.80;33.40;;;;;;;6.17;83.53;99363.34;107205;1256;64444;-59
2023/12/11 11:02:07;;;;;;;49.20;35.50;;;;;;;6.14;83.39;99357.89;105036;1258;74064;-61
2023/12/11 11:04:37;;;;;;;50.40;35.60;;;;;;;6.12;83.44;99355.58;104771;1256;137449;-61
2023/12/11 11:07:23;;;;;;;46.00;32.50;;;;;;;6.09;83.39;99357.27;109126;1256;59623;-60
2023/12/11 11:10:09;;;;;;;48.90;37.60;;;;;;;6.03;83.29;99352.07;108865;1257;137718;-59
2023/12/11 11:12:35;;;;;;;45.00;32.10;;;;;;;5.90;83.02;99350.22;109099;1256;64593;-60
2023/12/11 11:15:02;;;;;;;44.90;30.80;;;;;;;5.83;82.95;99355.80;108956;1256;138328;-60